createdAt,value
2022-08-26T00:00:05.721Z,13.85
2022-08-26T00:05:35.528Z,13.95
2022-08-26T00:10:38.005Z,14.05
2022-08-26T00:15:40.767Z,13.48
2022-08-26T00:20:43.196Z,14.23
2022-08-26T00:25:47.128Z,13.82
2022-08-26T00:30:51.688Z,13.60
2022-08-26T00:35:56.598Z,14.93
2022-08-26T00:41:03.844Z,14.20
2022-08-26T00:46:11.372Z,13.63
2022-08-26T00:51:23.012Z,14.23
2022-08-26T00:56:50.913Z,14.63
2022-08-26T01:01:53.577Z,13.20
2022-08-26T01:06:56.985Z,15.15
2022-08-26T01:17:45.330Z,14.50
2022-08-26T01:23:01.594Z,14.60
2022-08-26T01:28:09.557Z,14.52
2022-08-26T01:33:23.550Z,13.73
2022-08-26T01:38:26.253Z,15.48
2022-08-26T01:43:34.571Z,17.25
2022-08-26T01:48:38.957Z,17.33
2022-08-26T01:53:42.059Z,17.15
2022-08-26T01:58:57.275Z,17.70
2022-08-26T02:04:50.695Z,15.98
2022-08-26T02:09:53.570Z,14.65
2022-08-26T02:14:58.761Z,14.00
2022-08-26T02:20:07.681Z,14.00
2022-08-26T02:25:29.687Z,13.63
2022-08-26T02:30:40.566Z,14.73
2022-08-26T02:35:48.293Z,14.38
2022-08-26T02:40:53.144Z,14.35
2022-08-26T02:45:57.229Z,13.98
2022-08-26T02:51:01.877Z,14.15
2022-08-26T02:56:08.114Z,14.60
2022-08-26T03:01:30.705Z,14.35
2022-08-26T03:06:33.877Z,13.90
2022-08-26T03:11:36.935Z,13.50
2022-08-26T03:16:40.012Z,13.90
2022-08-26T03:21:47.598Z,14.48
2022-08-26T03:26:52.208Z,14.00
2022-08-26T03:31:57.914Z,14.15
2022-08-26T03:37:00.674Z,14.43
2022-08-26T03:42:03.058Z,13.88
2022-08-26T03:47:08.721Z,15.25
2022-08-26T03:52:11.564Z,15.40
2022-08-26T03:57:14.730Z,14.55
2022-08-26T04:02:19.502Z,13.68
2022-08-26T04:07:27.165Z,13.50
2022-08-26T04:12:30.310Z,12.93
2022-08-26T04:17:32.896Z,15.25
2022-08-26T04:22:35.226Z,15.48
2022-08-26T04:27:38.540Z,15.20
2022-08-26T04:32:43.294Z,14.90
2022-08-26T04:37:45.926Z,15.88
2022-08-26T04:42:48.776Z,16.35
2022-08-26T04:47:58.890Z,15.02
2022-08-26T04:53:01.920Z,15.13
2022-08-26T04:58:04.628Z,15.52
2022-08-26T05:03:07.238Z,18.58
2022-08-26T05:08:15.098Z,19.60
2022-08-26T05:13:20.617Z,17.30
2022-08-26T05:18:25.917Z,17.55
2022-08-26T05:23:29.621Z,17.40
2022-08-26T05:28:32.087Z,15.25
2022-08-26T05:33:34.664Z,14.20
2022-08-26T05:38:38.382Z,17.15
2022-08-26T05:43:41.143Z,15.65
2022-08-26T05:48:45.659Z,14.70
2022-08-26T05:53:54.805Z,14.40
2022-08-26T05:58:58.603Z,13.55
2022-08-26T06:04:02.636Z,15.75
2022-08-26T06:09:10.927Z,15.32
2022-08-26T06:14:15.664Z,15.63
2022-08-26T06:19:18.459Z,22.20
2022-08-26T06:24:41.020Z,16.38
2022-08-26T06:29:43.437Z,14.30
2022-08-26T06:34:45.928Z,23.75
2022-08-26T06:39:48.246Z,18.80
2022-08-26T06:44:53.819Z,19.77
2022-08-26T06:49:56.519Z,19.52
2022-08-26T06:54:58.787Z,21.42
2022-08-26T07:00:01.116Z,15.63
2022-08-26T07:05:04.362Z,18.90
2022-08-26T07:10:09.478Z,19.80
2022-08-26T07:15:12.745Z,18.55
2022-08-26T07:20:15.194Z,16.23
2022-08-26T07:25:17.564Z,17.77
2022-08-26T07:30:21.927Z,18.27
2022-08-26T07:40:30.901Z,18.00
2022-08-26T07:45:33.974Z,14.73
2022-08-26T07:50:50.633Z,17.15
2022-08-26T07:55:53.189Z,15.98
2022-08-26T08:00:55.730Z,15.30
2022-08-26T08:05:58.551Z,15.93
2022-08-26T08:11:01.632Z,13.73
2022-08-26T08:16:04.875Z,13.25
2022-08-26T08:21:24.112Z,12.60
2022-08-26T08:26:27.459Z,15.32
2022-08-26T08:31:56.940Z,12.43
2022-08-26T08:36:56.482Z,11.93
2022-08-26T08:42:23.689Z,11.18
2022-08-26T08:47:31.662Z,12.80
2022-08-26T08:52:35.846Z,13.00
2022-08-26T08:57:53.716Z,12.23
2022-08-26T09:03:01.764Z,12.48
2022-08-26T09:08:12.041Z,12.90
2022-08-26T09:13:24.881Z,12.45
2022-08-26T09:18:41.186Z,11.07
2022-08-26T09:23:49.757Z,12.43
2022-08-26T09:28:58.879Z,11.35
2022-08-26T09:34:08.772Z,13.00
2022-08-26T09:39:37.552Z,13.52
2022-08-26T09:45:08.473Z,12.40
2022-08-26T09:55:21.780Z,13.15
2022-08-26T10:00:40.034Z,11.18
2022-08-26T10:05:54.714Z,11.50
2022-08-26T10:11:00.556Z,11.18
2022-08-26T10:16:28.511Z,10.40
2022-08-26T10:21:37.130Z,10.30
2022-08-26T10:26:57.647Z,10.10
2022-08-26T10:32:13.895Z,9.07
2022-08-26T10:37:21.697Z,8.43
2022-08-26T10:42:42.933Z,8.57
2022-08-26T10:48:11.092Z,7.85
2022-08-26T10:53:17.903Z,7.60
2022-08-26T10:58:42.576Z,7.10
2022-08-26T11:04:23.637Z,6.55
2022-08-26T11:09:53.420Z,6.40
2022-08-26T11:20:08.986Z,5.32
2022-08-26T11:25:41.998Z,5.15
2022-08-26T11:30:57.869Z,5.30
2022-08-26T11:36:12.532Z,4.80
2022-08-26T11:41:41.848Z,5.10
2022-08-26T11:47:19.985Z,5.15
2022-08-26T11:52:53.263Z,4.60
2022-08-26T11:58:05.975Z,4.22
2022-08-26T12:03:19.626Z,4.22
2022-08-26T12:08:27.891Z,4.72
2022-08-26T12:13:30.399Z,4.00
2022-08-26T12:18:38.669Z,4.05
2022-08-26T12:23:46.039Z,4.38
2022-08-26T12:28:55.307Z,4.10
2022-08-26T12:34:01.175Z,3.70
2022-08-26T12:39:11.859Z,4.32
2022-08-26T12:44:34.424Z,3.67
2022-08-26T12:49:39.804Z,4.25
2022-08-26T12:55:00.436Z,4.10
2022-08-26T13:00:28.378Z,4.30
2022-08-26T13:05:34.033Z,4.40
2022-08-26T13:10:38.921Z,4.32
2022-08-26T13:15:41.272Z,4.15
2022-08-26T13:20:55.304Z,4.50
2022-08-26T13:26:37.038Z,4.35
2022-08-26T13:31:42.532Z,4.55
2022-08-26T13:36:49.026Z,4.50
2022-08-26T13:41:52.330Z,4.13
2022-08-26T13:46:54.989Z,4.10
2022-08-26T13:51:59.893Z,4.00
2022-08-26T13:57:02.393Z,4.40
2022-08-26T14:02:05.055Z,4.32
2022-08-26T14:07:21.131Z,4.07
2022-08-26T14:12:43.996Z,4.28
2022-08-26T14:17:47.618Z,4.88
2022-08-26T14:23:12.569Z,4.60
2022-08-26T14:28:12.791Z,4.90
2022-08-26T14:33:16.727Z,4.32
2022-08-26T14:38:19.393Z,4.13
2022-08-26T14:43:21.941Z,4.57
2022-08-26T14:48:24.178Z,4.50
2022-08-26T14:53:45.527Z,4.47
2022-08-26T14:58:48.554Z,4.00
2022-08-26T15:03:51.550Z,4.28
2022-08-26T15:08:54.061Z,4.65
2022-08-26T15:13:57.472Z,4.07
2022-08-26T15:19:00.076Z,4.30
2022-08-26T15:24:03.433Z,3.63
2022-08-26T15:29:06.094Z,4.05
2022-08-26T15:34:14.591Z,4.60
2022-08-26T15:39:18.627Z,4.05
2022-08-26T15:44:22.796Z,4.10
2022-08-26T15:49:26.474Z,3.75
2022-08-26T15:54:29.067Z,3.95
2022-08-26T15:59:31.754Z,3.90
2022-08-26T16:04:35.762Z,3.83
2022-08-26T16:09:38.258Z,3.60
2022-08-26T16:14:44.021Z,4.20
2022-08-26T16:19:46.441Z,3.60
2022-08-26T16:24:48.860Z,3.50
2022-08-26T16:29:51.319Z,3.65
2022-08-26T16:34:56.706Z,3.72
2022-08-26T16:39:59.608Z,4.18
2022-08-26T16:45:01.951Z,4.15
2022-08-26T16:50:06.860Z,4.07
2022-08-26T16:55:11.900Z,3.35
2022-08-26T17:00:28.024Z,3.70
2022-08-26T17:05:30.591Z,3.55
2022-08-26T17:10:33.042Z,4.15
2022-08-26T17:15:35.565Z,3.60
2022-08-26T17:20:38.376Z,3.60
2022-08-26T17:25:40.774Z,3.60
2022-08-26T17:30:43.240Z,3.83
2022-08-26T17:35:45.498Z,3.53
2022-08-26T17:40:47.821Z,4.55
2022-08-26T17:45:50.784Z,8.15
2022-08-26T17:50:54.055Z,11.38
2022-08-26T17:55:56.540Z,27.58
2022-08-26T18:00:58.825Z,28.17
2022-08-26T18:06:01.382Z,84.20
2022-08-26T18:11:03.730Z,68.35
2022-08-26T18:16:06.809Z,56.08
2022-08-26T18:21:18.105Z,36.58
2022-08-26T18:26:26.824Z,23.33
2022-08-26T18:31:30.729Z,9.23
2022-08-26T18:36:36.735Z,7.15
2022-08-26T18:41:57.029Z,8.25
2022-08-26T18:47:01.760Z,9.82
2022-08-26T18:57:08.361Z,12.07
2022-08-26T19:02:10.936Z,15.50
2022-08-26T19:07:14.687Z,14.68
2022-08-26T19:12:18.113Z,13.13
2022-08-26T19:17:22.670Z,8.38
2022-08-26T19:22:25.083Z,8.18
2022-08-26T19:27:27.851Z,7.68
2022-08-26T19:32:30.111Z,6.40
2022-08-26T19:37:34.392Z,7.22
2022-08-26T19:42:37.582Z,6.50
2022-08-26T19:47:40.292Z,6.65
2022-08-26T19:52:44.108Z,8.05
2022-08-26T19:57:48.283Z,7.45
2022-08-26T20:02:52.006Z,8.18
2022-08-26T20:07:54.673Z,6.90
2022-08-26T20:12:57.181Z,6.93
2022-08-26T20:18:00.710Z,6.88
2022-08-26T20:23:04.549Z,5.70
2022-08-26T20:28:07.104Z,5.53
2022-08-26T20:33:09.351Z,5.30
2022-08-26T20:38:12.166Z,5.15
2022-08-26T20:43:14.438Z,6.03
2022-08-26T20:48:16.712Z,6.50
2022-08-26T20:53:19.820Z,8.75
2022-08-26T20:58:26.714Z,11.15
2022-08-26T21:03:29.785Z,11.35
2022-08-26T21:08:33.565Z,11.73
2022-08-26T21:13:48.256Z,11.25
2022-08-26T21:18:58.176Z,11.40
2022-08-26T21:24:03.211Z,10.63
2022-08-26T21:29:06.849Z,10.40
2022-08-26T21:34:09.606Z,9.43
2022-08-26T21:39:12.427Z,7.78
2022-08-26T21:44:16.106Z,7.50
2022-08-26T21:49:18.559Z,7.50
2022-08-26T21:54:20.864Z,7.55
2022-08-26T21:59:25.050Z,8.43
2022-08-26T22:04:27.828Z,8.68
2022-08-26T22:14:36.433Z,8.85
2022-08-26T22:19:45.927Z,9.20
2022-08-26T22:24:48.909Z,8.65
2022-08-26T22:29:51.558Z,8.70
2022-08-26T22:34:53.803Z,9.60
2022-08-26T22:39:56.008Z,9.77
2022-08-26T22:44:58.293Z,9.95
2022-08-26T22:50:01.265Z,9.50
2022-08-26T22:55:04.730Z,16.98
2022-08-26T23:00:07.697Z,17.98
2022-08-26T23:05:13.651Z,16.58
2022-08-26T23:10:16.254Z,17.38
2022-08-26T23:15:19.504Z,16.77
2022-08-26T23:20:22.160Z,20.77
2022-08-26T23:25:25.398Z,12.00
2022-08-26T23:30:30.111Z,10.80
2022-08-26T23:35:32.534Z,10.07
2022-08-26T23:40:36.592Z,11.85
2022-08-26T23:45:39.031Z,12.68
2022-08-26T23:51:00.024Z,11.18
2022-08-26T23:56:02.398Z,11.38
